sensor_id;sensor_type;location;lat;lon;timestamp;P1;durP1;ratioP1;P2;durP2;ratioP2
75716;SDS011;64333;50.138;14.332;2022-11-20T00:00:29;63.58;;;23.35;;
75716;SDS011;64333;50.138;14.332;2022-11-20T00:02:54;56.60;;;23.35;;
75716;SDS011;64333;50.138;14.332;2022-11-20T00:05:19;71.35;;;23.92;;
75716;SDS011;64333;50.138;14.332;2022-11-20T00:07:45;54.35;;;22.48;;
75716;SDS011;64333;50.138;14.332;2022-11-20T00:10:11;60.78;;;22.02;;
75716;SDS011;64333;50.138;14.332;2022-11-20T00:12:36;79.63;;;26.05;;
75716;SDS011;64333;50.138;14.332;2022-11-20T00:15:02;55.42;;;21.65;;
75716;SDS011;64333;50.138;14.332;2022-11-20T00:17:28;58.00;;;22.65;;
75716;SDS011;64333;50.138;14.332;2022-11-20T00:19:53;53.40;;;22.50;;
75716;SDS011;64333;50.138;14.332;2022-11-20T00:22:18;60.85;;;21.80;;
75716;SDS011;64333;50.138;14.332;2022-11-20T00:24:44;62.40;;;22.73;;
75716;SDS011;64333;50.138;14.332;2022-11-20T00:27:09;53.20;;;22.27;;
75716;SDS011;64333;50.138;14.332;2022-11-20T00:29:34;57.30;;;22.95;;
75716;SDS011;64333;50.138;14.332;2022-11-20T00:32:00;51.25;;;20.73;;
75716;SDS011;64333;50.138;14.332;2022-11-20T00:34:25;52.70;;;22.20;;
75716;SDS011;64333;50.138;14.332;2022-11-20T00:36:50;51.63;;;20.95;;
75716;SDS011;64333;50.138;14.332;2022-11-20T00:39:16;45.03;;;18.52;;
75716;SDS011;64333;50.138;14.332;2022-11-20T00:41:41;54.33;;;20.92;;
75716;SDS011;64333;50.138;14.332;2022-11-20T00:44:06;54.10;;;19.70;;
75716;SDS011;64333;50.138;14.332;2022-11-20T00:46:32;54.67;;;20.45;;
75716;SDS011;64333;50.138;14.332;2022-11-20T00:48:57;53.13;;;19.42;;
75716;SDS011;64333;50.138;14.332;2022-11-20T00:51:23;47.75;;;18.73;;
75716;SDS011;64333;50.138;14.332;2022-11-20T00:53:50;48.30;;;19.60;;
75716;SDS011;64333;50.138;14.332;2022-11-20T00:56:16;47.53;;;19.55;;
75716;SDS011;64333;50.138;14.332;2022-11-20T00:58:44;44.35;;;17.15;;
75716;SDS011;64333;50.138;14.332;2022-11-20T01:01:14;46.40;;;18.48;;
75716;SDS011;64333;50.138;14.332;2022-11-20T01:03:45;40.17;;;18.38;;
75716;SDS011;64333;50.138;14.332;2022-11-20T01:06:16;41.70;;;17.55;;
75716;SDS011;64333;50.138;14.332;2022-11-20T01:08:46;45.33;;;19.15;;
75716;SDS011;64333;50.138;14.332;2022-11-20T01:11:13;51.42;;;20.60;;
75716;SDS011;64333;50.138;14.332;2022-11-20T01:13:40;43.10;;;17.85;;
75716;SDS011;64333;50.138;14.332;2022-11-20T01:16:10;47.85;;;20.52;;
75716;SDS011;64333;50.138;14.332;2022-11-20T01:18:39;47.70;;;18.85;;
75716;SDS011;64333;50.138;14.332;2022-11-20T01:21:10;41.25;;;18.27;;
75716;SDS011;64333;50.138;14.332;2022-11-20T01:23:38;45.35;;;18.98;;
75716;SDS011;64333;50.138;14.332;2022-11-20T01:26:06;44.83;;;18.52;;
75716;SDS011;64333;50.138;14.332;2022-11-20T01:28:34;53.75;;;21.02;;
75716;SDS011;64333;50.138;14.332;2022-11-20T01:31:00;41.67;;;18.95;;
75716;SDS011;64333;50.138;14.332;2022-11-20T01:33:26;50.45;;;18.40;;
75716;SDS011;64333;50.138;14.332;2022-11-20T01:35:52;45.35;;;18.98;;
75716;SDS011;64333;50.138;14.332;2022-11-20T01:38:18;51.83;;;20.42;;
75716;SDS011;64333;50.138;14.332;2022-11-20T01:40:45;48.80;;;21.25;;
75716;SDS011;64333;50.138;14.332;2022-11-20T01:43:17;50.35;;;19.25;;
75716;SDS011;64333;50.138;14.332;2022-11-20T01:48:20;44.85;;;18.02;;
75716;SDS011;64333;50.138;14.332;2022-11-20T01:50:48;45.85;;;17.90;;
75716;SDS011;64333;50.138;14.332;2022-11-20T01:53:16;42.70;;;17.67;;
75716;SDS011;64333;50.138;14.332;2022-11-20T01:55:49;39.70;;;17.02;;
75716;SDS011;64333;50.138;14.332;2022-11-20T01:58:19;45.47;;;16.17;;
75716;SDS011;64333;50.138;14.332;2022-11-20T02:00:50;37.92;;;16.75;;
75716;SDS011;64333;50.138;14.332;2022-11-20T02:03:16;43.70;;;18.23;;
75716;SDS011;64333;50.138;14.332;2022-11-20T02:08:43;36.05;;;15.68;;
75716;SDS011;64333;50.138;14.332;2022-11-20T02:11:09;44.35;;;17.73;;
75716;SDS011;64333;50.138;14.332;2022-11-20T02:13:34;44.35;;;17.33;;
75716;SDS011;64333;50.138;14.332;2022-11-20T02:16:19;38.95;;;17.65;;
75716;SDS011;64333;50.138;14.332;2022-11-20T02:18:48;38.92;;;16.92;;
75716;SDS011;64333;50.138;14.332;2022-11-20T02:24:08;43.47;;;17.30;;
75716;SDS011;64333;50.138;14.332;2022-11-20T02:26:39;45.33;;;17.67;;
75716;SDS011;64333;50.138;14.332;2022-11-20T02:34:44;38.50;;;15.75;;
75716;SDS011;64333;50.138;14.332;2022-11-20T02:37:10;41.45;;;16.67;;
75716;SDS011;64333;50.138;14.332;2022-11-20T02:39:35;35.42;;;15.88;;
75716;SDS011;64333;50.138;14.332;2022-11-20T02:42:01;39.00;;;15.90;;
75716;SDS011;64333;50.138;14.332;2022-11-20T02:44:27;35.80;;;16.48;;
75716;SDS011;64333;50.138;14.332;2022-11-20T02:46:52;36.60;;;16.13;;
75716;SDS011;64333;50.138;14.332;2022-11-20T02:49:17;38.60;;;15.25;;
75716;SDS011;64333;50.138;14.332;2022-11-20T02:51:43;37.63;;;16.52;;
75716;SDS011;64333;50.138;14.332;2022-11-20T02:54:08;36.65;;;17.67;;
75716;SDS011;64333;50.138;14.332;2022-11-20T02:56:33;40.67;;;17.10;;
75716;SDS011;64333;50.138;14.332;2022-11-20T02:58:59;33.65;;;17.15;;
75716;SDS011;64333;50.138;14.332;2022-11-20T03:01:24;39.53;;;17.85;;
75716;SDS011;64333;50.138;14.332;2022-11-20T03:03:49;45.25;;;17.77;;
75716;SDS011;64333;50.138;14.332;2022-11-20T03:06:16;41.72;;;17.30;;
75716;SDS011;64333;50.138;14.332;2022-11-20T03:08:41;39.45;;;16.60;;
75716;SDS011;64333;50.138;14.332;2022-11-20T03:11:07;35.90;;;16.70;;
75716;SDS011;64333;50.138;14.332;2022-11-20T03:13:33;38.90;;;17.85;;
75716;SDS011;64333;50.138;14.332;2022-11-20T03:16:04;43.53;;;17.33;;
75716;SDS011;64333;50.138;14.332;2022-11-20T03:18:40;33.83;;;15.65;;
75716;SDS011;64333;50.138;14.332;2022-11-20T03:21:07;40.15;;;15.77;;
75716;SDS011;64333;50.138;14.332;2022-11-20T03:23:34;37.60;;;16.00;;
75716;SDS011;64333;50.138;14.332;2022-11-20T03:26:10;37.78;;;16.42;;
75716;SDS011;64333;50.138;14.332;2022-11-20T03:28:55;40.50;;;17.45;;
75716;SDS011;64333;50.138;14.332;2022-11-20T03:31:23;33.30;;;14.75;;
75716;SDS011;64333;50.138;14.332;2022-11-20T03:33:50;36.03;;;15.23;;
75716;SDS011;64333;50.138;14.332;2022-11-20T03:36:16;38.13;;;15.43;;
75716;SDS011;64333;50.138;14.332;2022-11-20T03:38:44;38.85;;;16.40;;
75716;SDS011;64333;50.138;14.332;2022-11-20T03:41:11;35.88;;;15.68;;
75716;SDS011;64333;50.138;14.332;2022-11-20T03:43:38;35.65;;;15.20;;
75716;SDS011;64333;50.138;14.332;2022-11-20T03:46:04;34.85;;;16.10;;
75716;SDS011;64333;50.138;14.332;2022-11-20T03:48:30;36.10;;;16.40;;
75716;SDS011;64333;50.138;14.332;2022-11-20T03:53:33;38.70;;;17.20;;
75716;SDS011;64333;50.138;14.332;2022-11-20T03:55:58;40.42;;;17.35;;
75716;SDS011;64333;50.138;14.332;2022-11-20T03:58:24;44.72;;;18.52;;
75716;SDS011;64333;50.138;14.332;2022-11-20T04:00:49;46.65;;;18.33;;
75716;SDS011;64333;50.138;14.332;2022-11-20T04:03:14;53.60;;;20.65;;
75716;SDS011;64333;50.138;14.332;2022-11-20T04:05:40;46.92;;;19.83;;
75716;SDS011;64333;50.138;14.332;2022-11-20T04:08:05;49.03;;;19.02;;
75716;SDS011;64333;50.138;14.332;2022-11-20T04:10:30;51.58;;;20.52;;
75716;SDS011;64333;50.138;14.332;2022-11-20T04:12:56;52.00;;;18.38;;
75716;SDS011;64333;50.138;14.332;2022-11-20T04:15:21;52.03;;;20.80;;
75716;SDS011;64333;50.138;14.332;2022-11-20T04:17:46;46.80;;;18.45;;
75716;SDS011;64333;50.138;14.332;2022-11-20T04:20:12;51.28;;;18.55;;
75716;SDS011;64333;50.138;14.332;2022-11-20T04:22:37;50.20;;;19.67;;
75716;SDS011;64333;50.138;14.332;2022-11-20T04:25:03;58.60;;;21.88;;
75716;SDS011;64333;50.138;14.332;2022-11-20T04:27:30;54.05;;;21.00;;
75716;SDS011;64333;50.138;14.332;2022-11-20T04:29:55;49.03;;;19.58;;
75716;SDS011;64333;50.138;14.332;2022-11-20T04:32:20;48.88;;;18.15;;
75716;SDS011;64333;50.138;14.332;2022-11-20T04:34:46;47.08;;;18.38;;
75716;SDS011;64333;50.138;14.332;2022-11-20T04:37:11;49.45;;;19.08;;
75716;SDS011;64333;50.138;14.332;2022-11-20T04:39:36;53.15;;;19.33;;
75716;SDS011;64333;50.138;14.332;2022-11-20T04:42:02;53.00;;;20.38;;
75716;SDS011;64333;50.138;14.332;2022-11-20T04:44:46;47.92;;;18.05;;
75716;SDS011;64333;50.138;14.332;2022-11-20T04:47:11;52.67;;;19.90;;
75716;SDS011;64333;50.138;14.332;2022-11-20T04:49:36;45.78;;;17.92;;
75716;SDS011;64333;50.138;14.332;2022-11-20T04:52:02;50.05;;;18.45;;
75716;SDS011;64333;50.138;14.332;2022-11-20T04:54:27;47.47;;;18.98;;
75716;SDS011;64333;50.138;14.332;2022-11-20T04:56:53;52.97;;;18.98;;
75716;SDS011;64333;50.138;14.332;2022-11-20T04:59:18;46.00;;;19.67;;
75716;SDS011;64333;50.138;14.332;2022-11-20T05:01:43;52.60;;;19.98;;
75716;SDS011;64333;50.138;14.332;2022-11-20T05:04:09;47.67;;;19.00;;
75716;SDS011;64333;50.138;14.332;2022-11-20T05:06:34;52.97;;;18.98;;
75716;SDS011;64333;50.138;14.332;2022-11-20T05:08:59;44.30;;;19.13;;
75716;SDS011;64333;50.138;14.332;2022-11-20T05:11:25;53.00;;;18.88;;
75716;SDS011;64333;50.138;14.332;2022-11-20T05:13:54;49.35;;;18.13;;
75716;SDS011;64333;50.138;14.332;2022-11-20T05:16:22;47.63;;;18.58;;
75716;SDS011;64333;50.138;14.332;2022-11-20T05:18:49;45.42;;;17.75;;
75716;SDS011;64333;50.138;14.332;2022-11-20T05:21:19;46.63;;;18.92;;
75716;SDS011;64333;50.138;14.332;2022-11-20T05:23:45;47.00;;;19.15;;
75716;SDS011;64333;50.138;14.332;2022-11-20T05:26:12;44.72;;;19.27;;
75716;SDS011;64333;50.138;14.332;2022-11-20T05:28:39;48.10;;;18.75;;
75716;SDS011;64333;50.138;14.332;2022-11-20T05:33:31;43.13;;;17.90;;
75716;SDS011;64333;50.138;14.332;2022-11-20T05:35:58;47.65;;;18.90;;
75716;SDS011;64333;50.138;14.332;2022-11-20T05:38:23;38.45;;;17.85;;
75716;SDS011;64333;50.138;14.332;2022-11-20T05:40:49;46.03;;;17.73;;
75716;SDS011;64333;50.138;14.332;2022-11-20T05:43:14;47.03;;;18.33;;
75716;SDS011;64333;50.138;14.332;2022-11-20T05:45:39;48.20;;;18.52;;
75716;SDS011;64333;50.138;14.332;2022-11-20T05:48:05;39.47;;;15.27;;
75716;SDS011;64333;50.138;14.332;2022-11-20T05:50:30;39.65;;;16.65;;
75716;SDS011;64333;50.138;14.332;2022-11-20T05:52:57;42.00;;;17.10;;
75716;SDS011;64333;50.138;14.332;2022-11-20T05:55:24;45.28;;;17.40;;
75716;SDS011;64333;50.138;14.332;2022-11-20T05:57:49;42.42;;;17.63;;
75716;SDS011;64333;50.138;14.332;2022-11-20T06:00:15;46.17;;;17.10;;
75716;SDS011;64333;50.138;14.332;2022-11-20T06:02:40;45.17;;;18.85;;
75716;SDS011;64333;50.138;14.332;2022-11-20T06:05:06;39.83;;;17.17;;
75716;SDS011;64333;50.138;14.332;2022-11-20T06:07:31;37.80;;;17.30;;
75716;SDS011;64333;50.138;14.332;2022-11-20T06:09:57;44.83;;;18.95;;
75716;SDS011;64333;50.138;14.332;2022-11-20T06:12:22;43.53;;;18.55;;
75716;SDS011;64333;50.138;14.332;2022-11-20T06:14:47;45.63;;;16.92;;
75716;SDS011;64333;50.138;14.332;2022-11-20T06:17:13;42.67;;;17.63;;
75716;SDS011;64333;50.138;14.332;2022-11-20T06:19:38;40.85;;;16.98;;
75716;SDS011;64333;50.138;14.332;2022-11-20T06:22:03;43.17;;;18.13;;
75716;SDS011;64333;50.138;14.332;2022-11-20T06:24:29;46.08;;;17.33;;
75716;SDS011;64333;50.138;14.332;2022-11-20T06:26:54;39.35;;;17.90;;
75716;SDS011;64333;50.138;14.332;2022-11-20T06:29:19;40.42;;;17.58;;
75716;SDS011;64333;50.138;14.332;2022-11-20T06:31:45;46.28;;;19.25;;
75716;SDS011;64333;50.138;14.332;2022-11-20T06:34:10;49.40;;;19.40;;
75716;SDS011;64333;50.138;14.332;2022-11-20T06:36:36;46.53;;;18.65;;
75716;SDS011;64333;50.138;14.332;2022-11-20T06:39:01;48.42;;;18.65;;
75716;SDS011;64333;50.138;14.332;2022-11-20T06:41:27;42.97;;;17.23;;
75716;SDS011;64333;50.138;14.332;2022-11-20T06:43:53;42.88;;;17.35;;
75716;SDS011;64333;50.138;14.332;2022-11-20T06:46:19;50.95;;;19.70;;
75716;SDS011;64333;50.138;14.332;2022-11-20T06:48:45;41.83;;;18.00;;
75716;SDS011;64333;50.138;14.332;2022-11-20T06:51:12;48.28;;;19.38;;
75716;SDS011;64333;50.138;14.332;2022-11-20T06:53:37;50.47;;;19.83;;
75716;SDS011;64333;50.138;14.332;2022-11-20T06:56:03;48.80;;;19.15;;
75716;SDS011;64333;50.138;14.332;2022-11-20T06:58:31;44.65;;;19.63;;
75716;SDS011;64333;50.138;14.332;2022-11-20T07:01:00;60.13;;;22.15;;
75716;SDS011;64333;50.138;14.332;2022-11-20T07:03:35;45.90;;;19.35;;
75716;SDS011;64333;50.138;14.332;2022-11-20T07:06:00;48.38;;;19.90;;
75716;SDS011;64333;50.138;14.332;2022-11-20T07:08:27;51.22;;;18.58;;
75716;SDS011;64333;50.138;14.332;2022-11-20T07:10:56;48.97;;;19.67;;
75716;SDS011;64333;50.138;14.332;2022-11-20T07:13:23;47.13;;;19.85;;
75716;SDS011;64333;50.138;14.332;2022-11-20T07:15:48;50.10;;;19.08;;
75716;SDS011;64333;50.138;14.332;2022-11-20T07:18:14;49.10;;;19.40;;
75716;SDS011;64333;50.138;14.332;2022-11-20T07:20:39;51.72;;;18.83;;
75716;SDS011;64333;50.138;14.332;2022-11-20T07:23:04;47.90;;;19.33;;
75716;SDS011;64333;50.138;14.332;2022-11-20T07:25:30;45.58;;;19.08;;
75716;SDS011;64333;50.138;14.332;2022-11-20T07:27:59;46.67;;;18.77;;
75716;SDS011;64333;50.138;14.332;2022-11-20T07:30:25;49.15;;;18.73;;
75716;SDS011;64333;50.138;14.332;2022-11-20T07:32:52;52.33;;;21.65;;
75716;SDS011;64333;50.138;14.332;2022-11-20T07:35:18;51.13;;;22.00;;
75716;SDS011;64333;50.138;14.332;2022-11-20T07:37:44;53.72;;;21.52;;
75716;SDS011;64333;50.138;14.332;2022-11-20T07:40:11;49.95;;;19.52;;
75716;SDS011;64333;50.138;14.332;2022-11-20T07:42:37;50.63;;;21.30;;
75716;SDS011;64333;50.138;14.332;2022-11-20T07:45:02;51.30;;;20.40;;
75716;SDS011;64333;50.138;14.332;2022-11-20T07:47:28;53.50;;;21.67;;
75716;SDS011;64333;50.138;14.332;2022-11-20T07:49:53;49.38;;;21.27;;
75716;SDS011;64333;50.138;14.332;2022-11-20T07:52:19;51.38;;;21.88;;
75716;SDS011;64333;50.138;14.332;2022-11-20T07:54:44;52.65;;;20.63;;
75716;SDS011;64333;50.138;14.332;2022-11-20T07:57:09;51.30;;;21.08;;
75716;SDS011;64333;50.138;14.332;2022-11-20T07:59:35;73.57;;;30.35;;
75716;SDS011;64333;50.138;14.332;2022-11-20T08:02:00;54.22;;;22.08;;
75716;SDS011;64333;50.138;14.332;2022-11-20T08:04:26;50.78;;;20.15;;
75716;SDS011;64333;50.138;14.332;2022-11-20T08:06:52;52.25;;;20.80;;
75716;SDS011;64333;50.138;14.332;2022-11-20T08:09:17;51.47;;;21.20;;
75716;SDS011;64333;50.138;14.332;2022-11-20T08:11:42;50.05;;;21.35;;
75716;SDS011;64333;50.138;14.332;2022-11-20T08:14:26;54.90;;;24.00;;
75716;SDS011;64333;50.138;14.332;2022-11-20T08:16:52;49.30;;;20.65;;
75716;SDS011;64333;50.138;14.332;2022-11-20T08:19:18;57.83;;;22.33;;
75716;SDS011;64333;50.138;14.332;2022-11-20T08:21:44;56.08;;;22.20;;
75716;SDS011;64333;50.138;14.332;2022-11-20T08:24:10;49.72;;;22.27;;
75716;SDS011;64333;50.138;14.332;2022-11-20T08:26:36;64.63;;;28.25;;
75716;SDS011;64333;50.138;14.332;2022-11-20T08:29:03;59.58;;;25.02;;
75716;SDS011;64333;50.138;14.332;2022-11-20T08:31:29;49.22;;;22.95;;
75716;SDS011;64333;50.138;14.332;2022-11-20T08:33:55;53.72;;;22.88;;
75716;SDS011;64333;50.138;14.332;2022-11-20T08:36:21;51.28;;;22.30;;
75716;SDS011;64333;50.138;14.332;2022-11-20T08:38:48;50.72;;;23.30;;
75716;SDS011;64333;50.138;14.332;2022-11-20T08:41:14;55.13;;;23.70;;
75716;SDS011;64333;50.138;14.332;2022-11-20T08:43:49;57.40;;;24.35;;
75716;SDS011;64333;50.138;14.332;2022-11-20T08:46:15;52.83;;;23.38;;
75716;SDS011;64333;50.138;14.332;2022-11-20T08:48:41;51.58;;;22.25;;
75716;SDS011;64333;50.138;14.332;2022-11-20T08:51:07;45.13;;;21.70;;
75716;SDS011;64333;50.138;14.332;2022-11-20T08:53:33;51.13;;;22.65;;
75716;SDS011;64333;50.138;14.332;2022-11-20T08:55:58;56.35;;;22.90;;
75716;SDS011;64333;50.138;14.332;2022-11-20T08:58:24;46.03;;;21.60;;
75716;SDS011;64333;50.138;14.332;2022-11-20T09:00:50;54.70;;;23.25;;
75716;SDS011;64333;50.138;14.332;2022-11-20T09:03:15;50.58;;;23.02;;
75716;SDS011;64333;50.138;14.332;2022-11-20T09:05:41;53.80;;;22.60;;
75716;SDS011;64333;50.138;14.332;2022-11-20T09:08:07;51.53;;;23.80;;
75716;SDS011;64333;50.138;14.332;2022-11-20T09:10:34;54.17;;;24.48;;
75716;SDS011;64333;50.138;14.332;2022-11-20T09:13:00;59.05;;;24.08;;
75716;SDS011;64333;50.138;14.332;2022-11-20T09:15:26;57.70;;;24.48;;
75716;SDS011;64333;50.138;14.332;2022-11-20T09:17:52;54.25;;;25.35;;
75716;SDS011;64333;50.138;14.332;2022-11-20T09:20:19;57.70;;;25.10;;
75716;SDS011;64333;50.138;14.332;2022-11-20T09:22:44;60.17;;;25.02;;
75716;SDS011;64333;50.138;14.332;2022-11-20T09:25:09;56.50;;;25.95;;
75716;SDS011;64333;50.138;14.332;2022-11-20T09:27:35;52.75;;;22.50;;
75716;SDS011;64333;50.138;14.332;2022-11-20T09:30:01;57.63;;;25.33;;
75716;SDS011;64333;50.138;14.332;2022-11-20T09:32:27;56.85;;;22.98;;
75716;SDS011;64333;50.138;14.332;2022-11-20T09:34:52;56.63;;;23.70;;
75716;SDS011;64333;50.138;14.332;2022-11-20T09:37:17;58.55;;;26.10;;
75716;SDS011;64333;50.138;14.332;2022-11-20T09:39:43;59.72;;;27.15;;
75716;SDS011;64333;50.138;14.332;2022-11-20T09:42:13;50.72;;;23.25;;
75716;SDS011;64333;50.138;14.332;2022-11-20T09:45:02;54.75;;;24.17;;
75716;SDS011;64333;50.138;14.332;2022-11-20T09:50:33;49.75;;;22.02;;
75716;SDS011;64333;50.138;14.332;2022-11-20T09:56:00;45.85;;;21.10;;
75716;SDS011;64333;50.138;14.332;2022-11-20T09:58:44;46.20;;;21.95;;
75716;SDS011;64333;50.138;14.332;2022-11-20T10:01:13;60.70;;;27.38;;
75716;SDS011;64333;50.138;14.332;2022-11-20T10:06:29;46.30;;;21.55;;
75716;SDS011;64333;50.138;14.332;2022-11-20T10:11:39;47.90;;;21.48;;
75716;SDS011;64333;50.138;14.332;2022-11-20T10:18:14;46.15;;;22.70;;
75716;SDS011;64333;50.138;14.332;2022-11-20T10:20:35;53.63;;;23.83;;
75716;SDS011;64333;50.138;14.332;2022-11-20T10:23:17;53.25;;;23.73;;
75716;SDS011;64333;50.138;14.332;2022-11-20T10:25:57;55.75;;;24.25;;
75716;SDS011;64333;50.138;14.332;2022-11-20T10:28:46;48.53;;;23.42;;
75716;SDS011;64333;50.138;14.332;2022-11-20T10:31:29;54.42;;;25.30;;
75716;SDS011;64333;50.138;14.332;2022-11-20T10:34:00;54.03;;;25.30;;
75716;SDS011;64333;50.138;14.332;2022-11-20T10:36:33;54.78;;;28.42;;
75716;SDS011;64333;50.138;14.332;2022-11-20T10:39:05;51.40;;;24.17;;
75716;SDS011;64333;50.138;14.332;2022-11-20T10:41:42;52.38;;;24.92;;
75716;SDS011;64333;50.138;14.332;2022-11-20T10:44:14;46.25;;;22.23;;
75716;SDS011;64333;50.138;14.332;2022-11-20T10:47:05;54.33;;;24.95;;
75716;SDS011;64333;50.138;14.332;2022-11-20T10:49:44;55.97;;;26.83;;
75716;SDS011;64333;50.138;14.332;2022-11-20T11:00:22;44.65;;;22.70;;
75716;SDS011;64333;50.138;14.332;2022-11-20T11:02:51;52.53;;;24.70;;
75716;SDS011;64333;50.138;14.332;2022-11-20T11:07:58;44.33;;;22.00;;
75716;SDS011;64333;50.138;14.332;2022-11-20T11:10:26;63.05;;;30.17;;
75716;SDS011;64333;50.138;14.332;2022-11-20T11:12:59;52.35;;;26.10;;
75716;SDS011;64333;50.138;14.332;2022-11-20T11:15:38;50.55;;;25.90;;
75716;SDS011;64333;50.138;14.332;2022-11-20T11:18:04;46.58;;;22.55;;
75716;SDS011;64333;50.138;14.332;2022-11-20T11:20:33;45.45;;;22.75;;
75716;SDS011;64333;50.138;14.332;2022-11-20T11:22:59;49.78;;;25.27;;
75716;SDS011;64333;50.138;14.332;2022-11-20T11:25:26;45.13;;;23.95;;
75716;SDS011;64333;50.138;14.332;2022-11-20T11:27:59;47.53;;;24.80;;
75716;SDS011;64333;50.138;14.332;2022-11-20T11:30:45;44.83;;;23.60;;
75716;SDS011;64333;50.138;14.332;2022-11-20T11:33:23;49.38;;;24.10;;
75716;SDS011;64333;50.138;14.332;2022-11-20T11:35:57;57.55;;;28.67;;
75716;SDS011;64333;50.138;14.332;2022-11-20T11:38:35;53.45;;;25.92;;
75716;SDS011;64333;50.138;14.332;2022-11-20T11:41:05;54.92;;;26.88;;
75716;SDS011;64333;50.138;14.332;2022-11-20T11:43:34;53.95;;;27.73;;
75716;SDS011;64333;50.138;14.332;2022-11-20T11:48:58;54.95;;;29.02;;
75716;SDS011;64333;50.138;14.332;2022-11-20T11:51:34;52.50;;;26.75;;
75716;SDS011;64333;50.138;14.332;2022-11-20T11:54:11;50.45;;;27.58;;
75716;SDS011;64333;50.138;14.332;2022-11-20T11:56:48;54.78;;;26.88;;
75716;SDS011;64333;50.138;14.332;2022-11-20T11:59:23;46.72;;;24.05;;
75716;SDS011;64333;50.138;14.332;2022-11-20T12:02:01;51.88;;;24.23;;
75716;SDS011;64333;50.138;14.332;2022-11-20T12:04:42;53.92;;;26.02;;
75716;SDS011;64333;50.138;14.332;2022-11-20T12:09:42;47.78;;;24.13;;
75716;SDS011;64333;50.138;14.332;2022-11-20T12:12:15;48.28;;;24.80;;
75716;SDS011;64333;50.138;14.332;2022-11-20T12:14:48;61.08;;;26.17;;
75716;SDS011;64333;50.138;14.332;2022-11-20T12:17:16;56.95;;;27.15;;
75716;SDS011;64333;50.138;14.332;2022-11-20T12:19:43;51.38;;;24.85;;
75716;SDS011;64333;50.138;14.332;2022-11-20T12:22:17;47.90;;;25.15;;
75716;SDS011;64333;50.138;14.332;2022-11-20T12:25:06;50.78;;;25.05;;
75716;SDS011;64333;50.138;14.332;2022-11-20T12:30:20;51.95;;;25.83;;
75716;SDS011;64333;50.138;14.332;2022-11-20T12:47:49;56.33;;;27.10;;
75716;SDS011;64333;50.138;14.332;2022-11-20T12:53:27;58.95;;;28.33;;
75716;SDS011;64333;50.138;14.332;2022-11-20T12:58:40;69.82;;;33.10;;
75716;SDS011;64333;50.138;14.332;2022-11-20T13:07:08;60.38;;;27.92;;
75716;SDS011;64333;50.138;14.332;2022-11-20T13:09:38;54.30;;;26.08;;
75716;SDS011;64333;50.138;14.332;2022-11-20T13:12:11;60.30;;;29.15;;
75716;SDS011;64333;50.138;14.332;2022-11-20T13:18:00;56.72;;;27.35;;
75716;SDS011;64333;50.138;14.332;2022-11-20T13:20:27;55.53;;;26.58;;
75716;SDS011;64333;50.138;14.332;2022-11-20T13:22:55;58.15;;;24.73;;
75716;SDS011;64333;50.138;14.332;2022-11-20T13:27:54;112.85;;;55.72;;
75716;SDS011;64333;50.138;14.332;2022-11-20T13:30:22;56.10;;;26.80;;
75716;SDS011;64333;50.138;14.332;2022-11-20T13:35:32;57.25;;;26.38;;
75716;SDS011;64333;50.138;14.332;2022-11-20T13:38:04;60.65;;;28.17;;
75716;SDS011;64333;50.138;14.332;2022-11-20T13:40:32;58.75;;;27.52;;
75716;SDS011;64333;50.138;14.332;2022-11-20T13:48:21;59.92;;;28.83;;
75716;SDS011;64333;50.138;14.332;2022-11-20T13:51:04;60.58;;;28.00;;
75716;SDS011;64333;50.138;14.332;2022-11-20T13:56:40;63.17;;;28.83;;
75716;SDS011;64333;50.138;14.332;2022-11-20T14:02:00;65.65;;;29.23;;
75716;SDS011;64333;50.138;14.332;2022-11-20T14:04:30;60.38;;;26.98;;
75716;SDS011;64333;50.138;14.332;2022-11-20T14:07:00;58.78;;;26.23;;
75716;SDS011;64333;50.138;14.332;2022-11-20T14:09:26;71.82;;;31.52;;
75716;SDS011;64333;50.138;14.332;2022-11-20T14:11:53;80.32;;;37.55;;
75716;SDS011;64333;50.138;14.332;2022-11-20T14:14:20;55.15;;;27.90;;
75716;SDS011;64333;50.138;14.332;2022-11-20T14:16:51;60.38;;;28.55;;
75716;SDS011;64333;50.138;14.332;2022-11-20T14:21:46;64.57;;;32.47;;
75716;SDS011;64333;50.138;14.332;2022-11-20T14:24:18;63.03;;;34.65;;
75716;SDS011;64333;50.138;14.332;2022-11-20T14:26:45;58.85;;;30.35;;
75716;SDS011;64333;50.138;14.332;2022-11-20T14:29:45;61.55;;;31.10;;
75716;SDS011;64333;50.138;14.332;2022-11-20T14:32:04;51.65;;;25.23;;
75716;SDS011;64333;50.138;14.332;2022-11-20T14:34:31;63.35;;;30.60;;
75716;SDS011;64333;50.138;14.332;2022-11-20T14:37:01;62.53;;;31.27;;
75716;SDS011;64333;50.138;14.332;2022-11-20T14:39:34;65.60;;;31.38;;
75716;SDS011;64333;50.138;14.332;2022-11-20T14:42:03;62.65;;;31.38;;
75716;SDS011;64333;50.138;14.332;2022-11-20T14:44:39;58.65;;;28.80;;
75716;SDS011;64333;50.138;14.332;2022-11-20T14:47:06;73.20;;;36.25;;
75716;SDS011;64333;50.138;14.332;2022-11-20T14:49:34;98.55;;;57.60;;
75716;SDS011;64333;50.138;14.332;2022-11-20T14:52:01;74.20;;;41.50;;
75716;SDS011;64333;50.138;14.332;2022-11-20T14:54:42;61.92;;;30.45;;
75716;SDS011;64333;50.138;14.332;2022-11-20T15:02:43;67.80;;;32.40;;
75716;SDS011;64333;50.138;14.332;2022-11-20T15:05:11;57.47;;;29.42;;
75716;SDS011;64333;50.138;14.332;2022-11-20T15:07:37;63.95;;;29.00;;
75716;SDS011;64333;50.138;14.332;2022-11-20T15:10:07;60.88;;;26.70;;
75716;SDS011;64333;50.138;14.332;2022-11-20T15:12:35;61.40;;;28.10;;
75716;SDS011;64333;50.138;14.332;2022-11-20T15:15:05;58.85;;;29.02;;
75716;SDS011;64333;50.138;14.332;2022-11-20T15:17:31;63.03;;;29.15;;
75716;SDS011;64333;50.138;14.332;2022-11-20T15:19:59;59.53;;;28.25;;
75716;SDS011;64333;50.138;14.332;2022-11-20T15:22:27;59.60;;;29.20;;
75716;SDS011;64333;50.138;14.332;2022-11-20T15:24:52;60.97;;;26.63;;
75716;SDS011;64333;50.138;14.332;2022-11-20T15:27:17;60.05;;;28.92;;
75716;SDS011;64333;50.138;14.332;2022-11-20T15:29:43;54.60;;;26.27;;
75716;SDS011;64333;50.138;14.332;2022-11-20T15:32:08;63.53;;;28.15;;
75716;SDS011;64333;50.138;14.332;2022-11-20T15:34:34;62.45;;;28.65;;
75716;SDS011;64333;50.138;14.332;2022-11-20T15:36:59;56.97;;;28.55;;
75716;SDS011;64333;50.138;14.332;2022-11-20T15:39:25;64.07;;;30.83;;
75716;SDS011;64333;50.138;14.332;2022-11-20T15:41:50;68.13;;;31.48;;
75716;SDS011;64333;50.138;14.332;2022-11-20T15:44:15;68.45;;;30.95;;
75716;SDS011;64333;50.138;14.332;2022-11-20T15:46:41;65.15;;;29.75;;
75716;SDS011;64333;50.138;14.332;2022-11-20T15:49:10;64.65;;;30.00;;
75716;SDS011;64333;50.138;14.332;2022-11-20T15:51:38;69.93;;;33.65;;
75716;SDS011;64333;50.138;14.332;2022-11-20T15:54:15;68.07;;;33.90;;
75716;SDS011;64333;50.138;14.332;2022-11-20T15:56:47;68.68;;;33.88;;
75716;SDS011;64333;50.138;14.332;2022-11-20T15:59:13;70.22;;;33.47;;
75716;SDS011;64333;50.138;14.332;2022-11-20T16:01:41;67.85;;;34.13;;